Time;durP1;ratioP1;P1;durP2;ratioP2;P2;SDS_P1;SDS_P2;PMS_P1;PMS_P2;Temp;Humidity;BMP_temperature;BMP_pressure;BME280_temperature;BME280_humidity;BME280_pressure;Samples;Min_cycle;Max_cycle;Signal;HPM_P1;HPM_P2
2022/10/20 00:00:54;;;;;;;2.07;2.07;;;20.70;73.00;;;;;;5018742;28;43444;-72
2022/10/20 00:03:23;;;;;;;1.93;1.93;;;20.60;73.20;;;;;;5010481;28;43892;-71
2022/10/20 00:05:51;;;;;;;2.00;2.00;;;20.50;73.50;;;;;;5010946;28;43922;-71
2022/10/20 00:08:19;;;;;;;2.10;2.10;;;20.50;74.00;;;;;;5013346;28;43489;-71
2022/10/20 00:10:53;;;;;;;2.27;2.27;;;20.50;74.10;;;;;;5017197;28;43450;-72
2022/10/20 00:13:21;;;;;;;2.00;2.00;;;20.40;74.00;;;;;;5012821;28;44411;-71
2022/10/20 00:15:49;;;;;;;2.30;2.20;;;20.40;74.10;;;;;;5012233;28;44796;-71
2022/10/20 00:18:17;;;;;;;2.07;2.07;;;20.30;74.20;;;;;;5011011;28;43451;-71
2022/10/20 00:20:46;;;;;;;1.90;1.90;;;20.30;74.60;;;;;;5011273;28;43472;-71
2022/10/20 00:23:14;;;;;;;2.00;2.00;;;20.30;74.50;;;;;;5013363;28;44012;-71
2022/10/20 00:25:42;;;;;;;2.00;2.00;;;20.30;74.30;;;;;;5011445;28;43483;-70
2022/10/20 00:28:10;;;;;;;2.03;2.03;;;20.30;74.40;;;;;;5011873;28;43331;-71
2022/10/20 00:30:38;;;;;;;2.20;2.20;;;20.30;74.50;;;;;;5013924;28;43479;-72
2022/10/20 00:33:06;;;;;;;2.33;2.30;;;20.20;74.80;;;;;;5015390;28;43863;-72
2022/10/20 00:35:34;;;;;;;2.20;2.20;;;20.30;74.60;;;;;;5015168;28;44229;-71
2022/10/20 00:38:05;;;;;;;2.23;2.23;;;20.40;74.30;;;;;;5016634;28;44027;-72
2022/10/20 00:40:33;;;;;;;1.90;1.90;;;20.60;73.70;;;;;;5009646;28;43922;-71
2022/10/20 00:43:00;;;;;;;2.27;2.27;;;20.70;73.30;;;;;;5016665;28;43946;-71
2022/10/20 00:45:28;;;;;;;2.10;2.10;;;20.70;73.00;;;;;;5011531;28;43510;-71
2022/10/20 00:47:58;;;;;;;2.20;2.20;;;20.70;73.10;;;;;;5011485;28;43421;-71
2022/10/20 00:50:27;;;;;;;2.07;2.07;;;20.60;73.20;;;;;;5012434;28;43393;-72
2022/10/20 00:52:56;;;;;;;2.10;2.10;;;20.50;73.50;;;;;;5016913;28;45325;-70
2022/10/20 00:55:25;;;;;;;1.93;1.93;;;20.50;74.00;;;;;;5018851;28;43415;-72
2022/10/20 00:57:54;;;;;;;2.10;2.10;;;20.40;73.90;;;;;;5011228;28;44061;-72
2022/10/20 01:00:22;;;;;;;2.17;2.17;;;20.40;74.00;;;;;;5007993;28;43402;-72
2022/10/20 01:02:50;;;;;;;2.07;2.07;;;20.40;74.00;;;;;;5010517;28;45257;-72
2022/10/20 01:05:18;;;;;;;2.20;2.20;;;20.30;74.20;;;;;;5009272;28;43453;-71
2022/10/20 01:07:46;;;;;;;2.20;2.20;;;20.30;74.50;;;;;;5012656;28;43474;-71
2022/10/20 01:10:14;;;;;;;2.07;2.07;;;20.30;74.40;;;;;;5011265;28;43424;-72
2022/10/20 01:12:46;;;;;;;2.00;2.00;;;20.30;74.30;;;;;;5016853;28;43876;-72
2022/10/20 01:15:17;;;;;;;2.27;2.27;;;20.30;74.40;;;;;;5012323;28;43470;-71
2022/10/20 01:17:49;;;;;;;2.30;2.30;;;20.20;74.40;;;;;;5017450;28;43472;-72
2022/10/20 01:20:27;;;;;;;2.20;2.20;;;20.20;74.80;;;;;;5020440;28;43460;-73
2022/10/20 01:23:20;;;;;;;2.23;2.23;;;20.20;74.70;;;;;;5018795;28;43583;-72
2022/10/20 01:25:59;;;;;;;2.10;2.10;;;20.20;74.50;;;;;;5017267;28;43510;-70
2022/10/20 01:28:32;;;;;;;1.70;1.70;;;20.20;74.50;;;;;;5013820;28;43888;-71
2022/10/20 01:31:01;;;;;;;2.30;2.30;;;20.20;74.80;;;;;;5012723;28;43484;-71
2022/10/20 01:33:32;;;;;;;2.50;2.50;;;20.20;75.10;;;;;;5012088;28;43595;-71
2022/10/20 01:36:02;;;;;;;2.00;2.00;;;20.30;74.70;;;;;;5017287;28;43538;-71
2022/10/20 01:38:33;;;;;;;2.10;2.10;;;20.40;74.10;;;;;;5024454;28;43420;-72
2022/10/20 01:41:02;;;;;;;2.30;2.30;;;20.60;73.70;;;;;;5017306;28;43976;-72
2022/10/20 01:43:34;;;;;;;2.10;2.10;;;20.70;73.10;;;;;;5019769;28;45409;-71
2022/10/20 01:46:01;;;;;;;2.00;2.00;;;20.70;73.70;;;;;;5021036;28;43374;-71
2022/10/20 01:48:32;;;;;;;2.10;2.10;;;20.70;73.00;;;;;;5017083;28;43853;-72
2022/10/20 01:51:00;;;;;;;2.27;2.27;;;20.60;73.20;;;;;;5012725;28;43357;-71
2022/10/20 01:53:28;;;;;;;2.37;2.37;;;20.50;73.60;;;;;;5012493;28;43920;-71
2022/10/20 01:55:57;;;;;;;2.37;2.37;;;20.50;73.90;;;;;;5017483;28;43451;-72
2022/10/20 01:58:48;;;;;;;1.97;1.97;;;20.40;73.80;;;;;;5012624;28;43434;-71
2022/10/20 02:01:20;;;;;;;2.10;2.10;;;20.40;74.00;;;;;;4980307;28;43511;-72
2022/10/20 02:03:52;;;;;;;2.27;2.20;;;20.30;74.10;;;;;;5016502;28;44050;-72
2022/10/20 02:06:29;;;;;;;2.37;2.37;;;20.20;74.40;;;;;;5013841;28;44146;-72
2022/10/20 02:08:58;;;;;;;2.13;2.13;;;20.30;74.50;;;;;;5014046;28;43512;-71
2022/10/20 02:11:32;;;;;;;2.20;2.20;;;20.30;74.40;;;;;;5011440;28;43919;-72
2022/10/20 02:14:02;;;;;;;2.07;2.07;;;20.20;74.30;;;;;;5013857;28;43602;-71
2022/10/20 02:16:30;;;;;;;2.20;2.20;;;20.20;74.50;;;;;;5015742;28;43496;-71
2022/10/20 02:18:58;;;;;;;2.23;2.23;;;20.20;74.80;;;;;;5011574;28;43885;-71
2022/10/20 02:21:31;;;;;;;2.00;2.00;;;20.20;74.80;;;;;;5018162;28;43488;-71
2022/10/20 02:24:02;;;;;;;2.53;2.43;;;20.30;74.40;;;;;;5012059;28;43884;-71
2022/10/20 02:26:31;;;;;;;2.23;2.23;;;20.50;74.00;;;;;;5013306;28;43503;-72
2022/10/20 02:29:00;;;;;;;2.10;2.10;;;20.60;73.30;;;;;;5015639;28;43352;-72
2022/10/20 02:31:29;;;;;;;2.23;2.23;;;20.70;73.70;;;;;;5014980;28;43891;-71
2022/10/20 02:33:57;;;;;;;2.00;2.00;;;20.70;72.80;;;;;;5015299;28;43960;-71
2022/10/20 02:36:27;;;;;;;2.00;2.00;;;20.60;72.90;;;;;;5010353;28;43445;-71
2022/10/20 02:38:55;;;;;;;2.30;2.30;;;20.60;74.00;;;;;;5016051;28;43885;-72
2022/10/20 02:41:22;;;;;;;2.10;2.10;;;20.50;73.60;;;;;;5014200;28;43379;-71
2022/10/20 02:43:50;;;;;;;2.20;2.20;;;20.40;73.80;;;;;;5017912;28;43901;-71
2022/10/20 02:46:19;;;;;;;2.00;2.00;;;20.40;73.90;;;;;;5011711;28;44021;-72
2022/10/20 02:48:48;;;;;;;1.87;1.87;;;20.40;73.90;;;;;;5016454;28;43455;-72
2022/10/20 02:51:16;;;;;;;2.10;2.10;;;20.30;74.00;;;;;;5009419;28;43412;-72
2022/10/20 02:53:44;;;;;;;2.10;2.10;;;20.30;74.10;;;;;;5019518;28;43605;-71
2022/10/20 02:56:12;;;;;;;2.33;2.33;;;20.30;74.60;;;;;;5012465;28;44350;-72
2022/10/20 02:58:40;;;;;;;2.10;2.10;;;20.30;74.50;;;;;;5012325;28;43428;-72
2022/10/20 03:01:08;;;;;;;2.23;2.23;;;20.30;74.40;;;;;;5017454;28;43588;-72
2022/10/20 03:03:35;;;;;;;2.20;2.20;;;20.20;74.30;;;;;;5015037;28;43983;-71
2022/10/20 03:06:09;;;;;;;2.13;2.13;;;20.20;74.40;;;;;;5008664;28;43651;-72
2022/10/20 03:08:37;;;;;;;2.47;2.47;;;20.20;74.80;;;;;;5013323;28;43443;-71
2022/10/20 03:11:05;;;;;;;2.27;2.27;;;20.20;75.40;;;;;;5010770;28;43474;-71
2022/10/20 03:13:33;;;;;;;2.10;2.10;;;20.30;74.30;;;;;;5012934;28;43857;-71
2022/10/20 03:16:02;;;;;;;2.37;2.37;;;20.50;73.80;;;;;;5016960;28;43556;-70
2022/10/20 03:18:29;;;;;;;2.20;2.20;;;20.60;73.30;;;;;;5010064;28;43502;-71
2022/10/20 03:20:57;;;;;;;2.10;2.10;;;20.60;73.10;;;;;;5014867;28;43447;-71
2022/10/20 03:23:27;;;;;;;1.97;1.97;;;20.60;73.20;;;;;;5012134;28;44041;-71
2022/10/20 03:26:01;;;;;;;2.17;2.17;;;20.50;73.30;;;;;;5010524;28;46590;-71
2022/10/20 03:28:29;;;;;;;2.20;2.20;;;20.40;73.50;;;;;;5010831;28;43395;-72
2022/10/20 03:30:57;;;;;;;2.20;2.20;;;20.30;74.00;;;;;;5013326;28;43395;-72
2022/10/20 03:33:25;;;;;;;2.23;2.23;;;20.40;74.00;;;;;;5008702;28;45867;-72
2022/10/20 03:35:53;;;;;;;2.10;2.10;;;20.30;73.90;;;;;;5009076;28;43922;-71
2022/10/20 03:38:20;;;;;;;2.10;2.10;;;20.30;74.00;;;;;;5019770;28;43464;-71
2022/10/20 03:40:50;;;;;;;2.30;2.30;;;20.30;74.20;;;;;;5011052;28;43588;-71
2022/10/20 03:43:18;;;;;;;2.30;2.30;;;20.20;74.50;;;;;;5015787;28;44070;-72
2022/10/20 03:45:46;;;;;;;2.00;2.00;;;20.20;74.50;;;;;;5011070;28;44926;-72
2022/10/20 03:48:13;;;;;;;1.97;1.97;;;20.20;74.40;;;;;;5009210;28;43466;-72
2022/10/20 03:50:42;;;;;;;2.13;2.13;;;20.20;74.50;;;;;;5015941;28;43478;-72
2022/10/20 03:53:11;;;;;;;2.10;2.10;;;20.20;74.60;;;;;;5015032;28;44320;-72
2022/10/20 03:55:39;;;;;;;2.47;2.47;;;20.10;74.90;;;;;;5011343;28;43415;-70
2022/10/20 03:58:08;;;;;;;2.40;2.40;;;20.20;74.90;;;;;;5014137;28;43458;-72
2022/10/20 04:00:36;;;;;;;2.30;2.23;;;20.30;74.50;;;;;;5014490;28;43495;-72
2022/10/20 04:03:04;;;;;;;2.10;2.10;;;20.40;73.90;;;;;;5013391;28;45245;-72
2022/10/20 04:05:32;;;;;;;2.10;2.10;;;20.60;73.40;;;;;;5012256;28;43471;-71
2022/10/20 04:08:00;;;;;;;2.30;2.30;;;20.60;73.00;;;;;;5016371;28;43389;-71
2022/10/20 04:10:28;;;;;;;2.00;2.00;;;20.60;73.00;;;;;;5009560;28;43329;-71
2022/10/20 04:12:57;;;;;;;2.00;2.00;;;20.60;73.20;;;;;;5014406;28;43940;-72
2022/10/20 04:15:26;;;;;;;2.47;2.37;;;20.50;73.40;;;;;;5010407;28;43483;-71
2022/10/20 04:17:54;;;;;;;2.33;2.33;;;20.40;73.80;;;;;;5012637;28;43427;-72
2022/10/20 04:20:22;;;;;;;2.37;2.37;;;20.40;73.90;;;;;;5015781;28;43560;-72
2022/10/20 04:22:50;;;;;;;2.20;2.20;;;20.40;73.90;;;;;;5014785;28;44279;-72
2022/10/20 04:25:18;;;;;;;2.00;2.00;;;20.40;74.70;;;;;;5019035;28;43353;-71
2022/10/20 04:27:46;;;;;;;2.37;2.37;;;20.30;74.00;;;;;;5008658;28;43430;-71
2022/10/20 04:30:14;;;;;;;2.50;2.50;;;20.30;74.50;;;;;;5013562;28;44000;-71
2022/10/20 04:32:43;;;;;;;2.50;2.40;;;20.20;74.40;;;;;;5019782;28;43870;-72
2022/10/20 04:35:11;;;;;;;2.47;2.47;;;20.20;74.20;;;;;;5009651;28;43515;-71
2022/10/20 04:37:39;;;;;;;2.20;2.20;;;20.20;74.30;;;;;;5015290;28;43462;-71
2022/10/20 04:40:08;;;;;;;2.10;2.10;;;20.20;74.40;;;;;;5017771;28;43878;-71
2022/10/20 04:42:36;;;;;;;2.20;2.20;;;20.20;74.80;;;;;;5009438;28;43924;-71
2022/10/20 04:45:04;;;;;;;2.57;2.50;;;20.20;74.70;;;;;;5014632;28;43467;-72
2022/10/20 04:47:32;;;;;;;2.20;2.20;;;20.30;74.30;;;;;;5014338;28;43355;-71
2022/10/20 04:50:02;;;;;;;2.20;2.20;;;20.50;73.80;;;;;;5016177;28;43968;-72
2022/10/20 04:52:30;;;;;;;2.10;2.10;;;20.60;73.30;;;;;;5014991;28;43908;-71
2022/10/20 04:54:58;;;;;;;2.20;2.20;;;20.70;73.10;;;;;;5010922;28;43455;-72
2022/10/20 04:57:26;;;;;;;2.40;2.40;;;20.60;73.00;;;;;;5008054;28;43425;-71
2022/10/20 04:59:54;;;;;;;2.10;2.10;;;20.60;73.30;;;;;;5015018;28;43451;-72
2022/10/20 05:02:21;;;;;;;2.30;2.20;;;20.50;73.50;;;;;;5016676;28;43834;-72
2022/10/20 05:04:49;;;;;;;2.30;2.30;;;20.40;74.00;;;;;;5007123;28;43404;-71
2022/10/20 05:07:19;;;;;;;2.37;2.37;;;20.40;74.00;;;;;;5018282;28;43415;-71
2022/10/20 05:09:47;;;;;;;2.37;2.37;;;20.40;74.00;;;;;;5011539;28;43476;-72
2022/10/20 05:12:15;;;;;;;2.20;2.20;;;20.30;74.00;;;;;;5012414;28;43921;-72
2022/10/20 05:14:43;;;;;;;2.50;2.50;;;20.30;74.20;;;;;;5006724;28;43495;-72
2022/10/20 05:17:11;;;;;;;2.50;2.50;;;20.20;74.50;;;;;;5017539;28;43494;-71
2022/10/20 05:19:39;;;;;;;2.60;2.47;;;20.20;74.50;;;;;;5009510;28;43488;-72
2022/10/20 05:22:07;;;;;;;2.20;2.20;;;20.20;74.30;;;;;;5014507;28;43849;-71
2022/10/20 05:24:36;;;;;;;1.97;1.97;;;20.20;74.40;;;;;;5010804;28;43467;-72
2022/10/20 05:27:04;;;;;;;2.03;2.03;;;20.20;74.50;;;;;;5014817;28;43443;-71
2022/10/20 05:29:32;;;;;;;2.37;2.37;;;20.20;74.90;;;;;;5019491;28;43454;-71
2022/10/20 05:32:00;;;;;;;2.20;2.20;;;20.20;74.80;;;;;;5012256;28;44913;-72
2022/10/20 05:34:28;;;;;;;2.50;2.50;;;20.30;74.40;;;;;;5010358;28;44309;-72
2022/10/20 05:36:56;;;;;;;2.47;2.47;;;20.50;73.90;;;;;;5013636;28;43336;-70
2022/10/20 05:39:24;;;;;;;2.27;2.27;;;20.60;73.30;;;;;;5019743;28;43387;-71
2022/10/20 05:41:53;;;;;;;2.57;2.57;;;20.70;73.00;;;;;;5010358;28;45544;-71
2022/10/20 05:44:21;;;;;;;2.40;2.40;;;20.60;72.90;;;;;;5012596;28;43462;-73
2022/10/20 05:46:49;;;;;;;2.23;2.23;;;20.60;73.10;;;;;;5009806;28;43992;-72
2022/10/20 05:49:17;;;;;;;2.70;2.63;;;20.50;73.40;;;;;;5018195;28;43570;-73
2022/10/20 05:51:45;;;;;;;2.30;2.30;;;20.40;73.90;;;;;;5017167;28;43624;-71
2022/10/20 05:54:13;;;;;;;2.40;2.40;;;20.40;74.00;;;;;;5013556;28;43519;-71
2022/10/20 05:56:41;;;;;;;2.27;2.27;;;20.30;73.80;;;;;;5016489;28;43935;-72
2022/10/20 05:59:10;;;;;;;2.20;2.20;;;20.30;74.00;;;;;;5017099;28;43496;-71
2022/10/20 06:01:46;;;;;;;2.10;2.10;;;20.30;74.20;;;;;;5013655;28;43670;-72
2022/10/20 06:04:15;;;;;;;2.40;2.40;;;20.20;74.40;;;;;;5013785;28;44745;-71
2022/10/20 06:06:43;;;;;;;2.50;2.50;;;20.20;74.60;;;;;;5019032;28;43368;-71
2022/10/20 06:09:12;;;;;;;2.40;2.40;;;20.20;74.50;;;;;;5019629;28;43466;-71
2022/10/20 06:11:40;;;;;;;2.23;2.23;;;20.20;74.40;;;;;;5015608;28;43822;-71
2022/10/20 06:14:08;;;;;;;2.60;2.50;;;20.20;74.50;;;;;;5019260;28;43419;-72
2022/10/20 06:16:37;;;;;;;2.37;2.37;;;20.10;74.50;;;;;;5018302;28;43435;-72
2022/10/20 06:19:06;;;;;;;2.47;2.47;;;20.10;74.90;;;;;;5010688;28;43516;-71
2022/10/20 06:21:34;;;;;;;2.30;2.30;;;20.20;74.70;;;;;;5019186;28;45827;-72
2022/10/20 06:24:03;;;;;;;2.50;2.50;;;20.30;74.30;;;;;;5014248;28;43466;-72
2022/10/20 06:26:32;;;;;;;2.37;2.37;;;20.40;73.80;;;;;;5024262;28;43478;-73
2022/10/20 06:29:00;;;;;;;2.50;2.40;;;20.40;73.50;;;;;;5019913;28;43797;-71
2022/10/20 06:31:32;;;;;;;2.40;2.40;;;20.40;73.40;;;;;;5015822;28;43712;-73
2022/10/20 06:34:01;;;;;;;2.33;2.33;;;20.40;73.90;;;;;;5015712;28;43403;-72
2022/10/20 06:36:29;;;;;;;2.60;2.60;;;20.40;73.70;;;;;;5019592;28;43419;-70
2022/10/20 06:38:58;;;;;;;2.50;2.50;;;20.40;73.70;;;;;;5025746;28;44009;-72
2022/10/20 06:41:26;;;;;;;1.97;1.97;;;20.40;73.70;;;;;;5012075;28;43682;-71
2022/10/20 06:43:58;;;;;;;2.40;2.40;;;20.30;73.80;;;;;;5013709;28;43507;-70
2022/10/20 06:46:26;;;;;;;2.47;2.43;;;20.30;74.30;;;;;;5010893;28;43458;-70
2022/10/20 06:48:54;;;;;;;2.53;2.53;;;20.30;74.30;;;;;;5016317;28;43424;-71
2022/10/20 06:51:27;;;;;;;2.50;2.40;;;20.30;74.30;;;;;;5013493;28;45829;-71
2022/10/20 06:53:55;;;;;;;2.30;2.30;;;20.20;74.20;;;;;;5009227;28;43502;-72
2022/10/20 06:56:23;;;;;;;2.37;2.37;;;20.20;74.30;;;;;;5013623;28;43441;-72
2022/10/20 06:58:53;;;;;;;2.60;2.50;;;20.20;74.70;;;;;;5015552;28;43492;-73
2022/10/20 07:01:22;;;;;;;2.30;2.30;;;20.20;74.60;;;;;;5012426;28;43907;-72
2022/10/20 07:03:51;;;;;;;2.27;2.27;;;20.20;74.50;;;;;;5010188;28;44705;-70
2022/10/20 07:06:21;;;;;;;2.40;2.40;;;20.20;74.50;;;;;;5018824;28;43438;-71
2022/10/20 07:08:52;;;;;;;2.20;2.20;;;20.10;74.50;;;;;;5010693;28;43560;-71
2022/10/20 07:11:21;;;;;;;2.33;2.33;;;20.10;74.90;;;;;;5013630;28;45606;-73
2022/10/20 07:13:49;;;;;;;2.37;2.37;;;20.20;74.90;;;;;;5019605;28;43968;-72
2022/10/20 07:16:17;;;;;;;2.37;2.30;;;20.30;74.60;;;;;;5014483;28;43452;-71
2022/10/20 07:18:45;;;;;;;2.40;2.40;;;20.40;74.00;;;;;;5021016;28;43531;-72
2022/10/20 07:21:14;;;;;;;2.60;2.50;;;20.50;73.30;;;;;;5011017;28;44489;-71
2022/10/20 07:23:42;;;;;;;2.47;2.47;;;20.60;73.00;;;;;;5011776;28;43356;-72
2022/10/20 07:26:13;;;;;;;2.50;2.50;;;20.60;72.90;;;;;;5012854;28;43394;-71
2022/10/20 07:28:41;;;;;;;2.30;2.30;;;20.60;73.00;;;;;;5018928;28;43866;-72
2022/10/20 07:31:10;;;;;;;2.67;2.53;;;20.50;73.20;;;;;;5011823;28;44814;-71
2022/10/20 07:33:38;;;;;;;2.37;2.37;;;20.40;73.70;;;;;;5016061;28;43386;-72
2022/10/20 07:36:14;;;;;;;2.50;2.50;;;20.40;73.90;;;;;;5012084;28;43504;-72
2022/10/20 07:38:42;;;;;;;2.43;2.43;;;20.40;74.00;;;;;;5022807;28;44337;-70
2022/10/20 07:41:11;;;;;;;2.40;2.40;;;20.30;74.00;;;;;;5014791;28;43671;-71
2022/10/20 07:43:39;;;;;;;2.37;2.37;;;20.20;73.90;;;;;;5013777;28;43416;-71
2022/10/20 07:46:07;;;;;;;2.57;2.57;;;20.20;74.20;;;;;;5015662;28;43426;-71
2022/10/20 07:48:35;;;;;;;2.40;2.40;;;20.20;74.60;;;;;;5015355;28;43432;-71
2022/10/20 07:51:25;;;;;;;2.40;2.40;;;20.20;74.50;;;;;;5010066;28;43595;-72
2022/10/20 07:53:54;;;;;;;2.50;2.50;;;20.30;74.10;;;;;;5008149;28;43523;-71
2022/10/20 07:56:29;;;;;;;2.30;2.23;;;20.40;73.90;;;;;;5010598;28;43410;-72
2022/10/20 07:58:57;;;;;;;2.23;2.23;;;20.40;73.70;;;;;;5016482;28;43450;-72
2022/10/20 08:01:24;;;;;;;2.50;2.50;;;20.40;73.90;;;;;;5020208;28;43845;-72
2022/10/20 08:03:55;;;;;;;2.20;2.20;;;20.30;73.90;;;;;;5014026;28;43378;-71
2022/10/20 08:06:23;;;;;;;2.33;2.33;;;20.40;73.90;;;;;;5015789;28;43395;-73
2022/10/20 08:08:51;;;;;;;2.40;2.40;;;20.30;73.80;;;;;;5014889;28;43391;-71
2022/10/20 08:11:19;;;;;;;2.20;2.20;;;20.20;73.90;;;;;;5017204;28;43834;-71
2022/10/20 08:13:49;;;;;;;2.73;2.60;;;20.20;74.20;;;;;;5014950;28;43448;-71
2022/10/20 08:16:17;;;;;;;2.17;2.17;;;20.20;74.50;;;;;;5010342;28;43347;-71
2022/10/20 08:18:50;;;;;;;2.57;2.57;;;20.20;74.40;;;;;;5017999;28;44379;-71
2022/10/20 08:21:24;;;;;;;2.10;2.10;;;20.20;74.30;;;;;;5010516;28;43831;-72
2022/10/20 08:23:52;;;;;;;2.40;2.40;;;20.10;74.30;;;;;;5014192;28;43504;-71
2022/10/20 08:26:21;;;;;;;2.33;2.33;;;20.10;74.50;;;;;;5018931;28;43909;-71
2022/10/20 08:28:51;;;;;;;2.20;2.20;;;20.10;74.90;;;;;;5014141;28;43460;-71
2022/10/20 08:31:19;;;;;;;2.50;2.50;;;20.20;74.70;;;;;;5011104;28;43886;-71
2022/10/20 08:33:47;;;;;;;2.20;2.20;;;20.30;74.30;;;;;;5012544;28;43435;-71
2022/10/20 08:36:19;;;;;;;2.17;2.17;;;20.40;73.90;;;;;;5013700;28;43431;-71
2022/10/20 08:38:47;;;;;;;2.30;2.30;;;20.40;73.70;;;;;;5023084;28;43944;-71
2022/10/20 08:41:18;;;;;;;2.30;2.30;;;20.30;73.80;;;;;;5010895;28;44671;-71
2022/10/20 08:43:46;;;;;;;2.57;2.57;;;20.30;74.00;;;;;;5018651;28;43441;-72
2022/10/20 08:46:16;;;;;;;2.00;2.00;;;20.30;73.90;;;;;;5009649;28;43367;-71
2022/10/20 08:48:45;;;;;;;2.43;2.43;;;20.30;74.00;;;;;;5011349;28;43422;-71
2022/10/20 08:51:16;;;;;;;2.30;2.30;;;20.20;73.90;;;;;;5018709;28;43990;-71
2022/10/20 08:53:44;;;;;;;2.33;2.33;;;20.20;74.10;;;;;;5018265;28;43415;-71
2022/10/20 08:56:12;;;;;;;2.33;2.30;;;20.20;74.60;;;;;;5016897;28;43582;-71
2022/10/20 08:58:42;;;;;;;2.10;2.10;;;20.10;74.40;;;;;;5017072;28;43533;-71
2022/10/20 09:01:19;;;;;;;2.13;2.13;;;20.10;74.40;;;;;;5017533;28;43909;-72
2022/10/20 09:03:49;;;;;;;2.20;2.20;;;20.10;74.50;;;;;;5020141;28;43358;-72
2022/10/20 09:06:17;;;;;;;2.10;2.10;;;20.10;74.70;;;;;;5017697;28;43430;-71
2022/10/20 09:08:45;;;;;;;2.50;2.40;;;20.00;74.90;;;;;;5015546;28;43519;-73
2022/10/20 09:11:15;;;;;;;2.20;2.20;;;20.10;74.80;;;;;;5020541;28;43886;-71
2022/10/20 09:13:43;;;;;;;2.20;2.20;;;20.10;74.60;;;;;;5011595;28;43406;-70
2022/10/20 09:16:14;;;;;;;2.37;2.37;;;20.00;74.50;;;;;;5013133;28;43380;-71
2022/10/20 09:19:02;;;;;;;2.20;2.20;;;20.00;74.60;;;;;;5021222;28;44066;-71
2022/10/20 09:21:31;;;;;;;2.37;2.37;;;20.00;75.00;;;;;;5013856;28;43923;-72
2022/10/20 09:24:01;;;;;;;3.37;2.20;;;20.10;74.80;;;;;;5006861;28;43471;-71
2022/10/20 09:26:34;;;;;;;2.47;2.37;;;20.20;74.00;;;;;;5011258;28;43339;-72
2022/10/20 09:29:23;;;;;;;2.43;2.33;;;20.40;73.70;;;;;;5010844;28;43345;-72
2022/10/20 09:31:52;;;;;;;2.40;2.30;;;20.50;73.20;;;;;;5011335;28;43920;-73
2022/10/20 09:34:23;;;;;;;2.60;2.30;;;20.50;73.00;;;;;;5018691;28;43423;-70
2022/10/20 09:36:51;;;;;;;3.37;2.50;;;20.50;73.00;;;;;;5013288;28;43517;-71
2022/10/20 09:39:20;;;;;;;2.97;2.77;;;20.40;73.20;;;;;;5016123;28;43409;-71
2022/10/20 09:41:48;;;;;;;2.67;2.57;;;20.40;73.70;;;;;;5017065;28;43856;-72
2022/10/20 09:44:22;;;;;;;2.50;2.50;;;20.30;73.90;;;;;;5015530;28;43517;-71
2022/10/20 09:46:51;;;;;;;2.43;2.27;;;20.30;73.90;;;;;;5019086;28;43446;-71
2022/10/20 09:49:25;;;;;;;2.43;2.33;;;20.20;73.80;;;;;;5014902;28;43382;-71
2022/10/20 09:51:53;;;;;;;2.43;2.40;;;20.20;73.90;;;;;;5018596;28;44058;-71
2022/10/20 09:54:22;;;;;;;4.70;2.50;;;20.20;74.30;;;;;;5012779;28;43491;-71
2022/10/20 09:56:51;;;;;;;2.63;2.53;;;20.10;74.50;;;;;;5016694;28;43388;-73
2022/10/20 09:59:21;;;;;;;3.00;2.80;;;20.20;74.30;;;;;;5011783;28;43898;-71
2022/10/20 10:01:53;;;;;;;2.40;2.30;;;20.30;74.00;;;;;;5017377;28;43846;-72
2022/10/20 10:04:31;;;;;;;2.70;2.60;;;20.30;73.80;;;;;;5011374;28;43476;-71
2022/10/20 10:06:59;;;;;;;2.67;2.47;;;20.30;73.90;;;;;;5013141;28;43346;-71
2022/10/20 10:09:29;;;;;;;2.50;2.40;;;20.30;74.20;;;;;;5013695;28;43458;-71
2022/10/20 10:11:59;;;;;;;2.30;2.30;;;20.30;74.00;;;;;;5008508;28;46105;-72
2022/10/20 10:14:27;;;;;;;2.50;2.40;;;20.30;74.00;;;;;;5017249;28;43407;-71
2022/10/20 10:16:55;;;;;;;2.37;2.37;;;20.20;73.90;;;;;;5012105;28;43873;-71
2022/10/20 10:19:26;;;;;;;3.03;2.50;;;20.20;74.10;;;;;;5013369;28;43620;-71
2022/10/20 10:21:56;;;;;;;2.40;2.30;;;20.20;74.60;;;;;;5026187;28;43615;-71
2022/10/20 10:24:45;;;;;;;2.43;2.43;;;20.20;74.50;;;;;;5010140;28;45191;-70
2022/10/20 10:27:21;;;;;;;2.20;2.20;;;20.10;74.20;;;;;;5013550;28;43916;-71
2022/10/20 10:29:49;;;;;;;2.23;2.23;;;20.20;74.30;;;;;;5014655;28;43536;-71
2022/10/20 10:32:18;;;;;;;2.53;2.53;;;20.10;74.40;;;;;;5011208;28;45610;-73
2022/10/20 10:34:58;;;;;;;2.30;2.20;;;20.10;74.80;;;;;;5010888;28;44248;-70
2022/10/20 10:37:28;;;;;;;2.50;2.50;;;20.10;74.70;;;;;;5011525;28;43471;-72
2022/10/20 10:40:02;;;;;;;2.30;2.30;;;20.20;74.30;;;;;;5023065;28;43435;-71
2022/10/20 10:42:55;;;;;;;2.37;2.30;;;20.40;73.90;;;;;;5014252;28;43928;-73
2022/10/20 10:45:32;;;;;;;2.47;2.37;;;20.50;73.30;;;;;;5016430;28;43360;-71
2022/10/20 10:48:27;;;;;;;2.73;2.63;;;20.60;73.20;;;;;;5009560;28;43526;-72
2022/10/20 10:50:57;;;;;;;2.23;2.23;;;20.50;73.10;;;;;;5014169;28;43362;-72
2022/10/20 10:53:34;;;;;;;2.30;2.20;;;20.40;73.30;;;;;;5021948;28;44445;-71
2022/10/20 10:56:06;;;;;;;2.50;2.50;;;20.30;73.70;;;;;;5015137;28;43447;-70
2022/10/20 10:58:42;;;;;;;2.50;2.40;;;20.30;74.10;;;;;;5014715;28;43428;-71
2022/10/20 11:01:22;;;;;;;2.23;2.23;;;20.30;74.00;;;;;;5018047;28;43590;-71
2022/10/20 11:04:08;;;;;;;2.43;2.33;;;20.20;74.00;;;;;;5009587;28;43801;-72
2022/10/20 11:06:37;;;;;;;2.10;2.10;;;20.20;74.20;;;;;;5014253;28;43419;-70
2022/10/20 11:09:14;;;;;;;2.17;2.17;;;20.10;74.40;;;;;;5016955;28;43973;-71
2022/10/20 11:11:46;;;;;;;2.57;2.47;;;20.20;74.70;;;;;;5016372;28;43411;-72
2022/10/20 11:14:20;;;;;;;2.37;2.37;;;20.10;74.40;;;;;;5013261;28;43911;-72
2022/10/20 11:16:55;;;;;;;2.00;2.00;;;20.10;74.40;;;;;;5015397;28;43555;-71
2022/10/20 11:19:40;;;;;;;2.33;2.20;;;20.10;74.50;;;;;;5010667;28;43395;-72
2022/10/20 11:22:15;;;;;;;2.40;2.40;;;20.10;74.70;;;;;;5011751;28;43812;-72
2022/10/20 11:24:47;;;;;;;2.40;2.30;;;20.10;74.90;;;;;;5014643;28;45978;-71
2022/10/20 11:27:16;;;;;;;2.33;2.33;;;20.10;74.70;;;;;;5010202;28;43395;-70
2022/10/20 11:29:46;;;;;;;2.37;2.37;;;20.10;74.70;;;;;;5013931;28;43519;-71
2022/10/20 11:32:20;;;;;;;2.10;2.10;;;20.00;74.60;;;;;;5017366;28;43905;-71
2022/10/20 11:34:53;;;;;;;2.53;2.53;;;20.00;75.00;;;;;;5012303;28;43929;-71
2022/10/20 11:37:23;;;;;;;2.27;2.27;;;20.00;75.00;;;;;;5011667;28;43834;-72
2022/10/20 11:39:56;;;;;;;2.20;2.20;;;20.20;74.80;;;;;;5014287;28;43733;-72
2022/10/20 11:42:26;;;;;;;2.40;2.33;;;20.30;74.20;;;;;;5014546;28;43389;-71
2022/10/20 11:44:54;;;;;;;2.63;2.53;;;20.50;74.30;;;;;;5013499;28;43853;-72
2022/10/20 11:47:25;;;;;;;2.40;2.40;;;20.50;73.10;;;;;;5013026;28;43439;-71
2022/10/20 11:49:53;;;;;;;2.40;2.40;;;20.50;73.00;;;;;;5021022;28;43346;-70
2022/10/20 11:52:50;;;;;;;2.23;2.23;;;20.50;73.20;;;;;;5017392;28;43517;-72
2022/10/20 11:55:35;;;;;;;2.37;2.37;;;20.40;73.40;;;;;;5004965;28;43863;-72
2022/10/20 11:58:31;;;;;;;2.50;2.50;;;20.30;73.90;;;;;;5012079;28;43510;-71
2022/10/20 12:01:20;;;;;;;2.43;2.23;;;20.20;74.10;;;;;;5012492;28;43968;-72
2022/10/20 12:04:21;;;;;;;2.30;2.20;;;20.20;74.00;;;;;;5008658;28;43462;-73
2022/10/20 12:07:01;;;;;;;2.30;2.30;;;20.20;74.10;;;;;;5010213;28;43941;-72
2022/10/20 12:09:47;;;;;;;2.17;2.10;;;20.20;74.40;;;;;;5007202;28;44979;-71
2022/10/20 12:12:18;;;;;;;2.70;2.60;;;20.10;74.70;;;;;;5022795;28;43893;-71
2022/10/20 12:14:49;;;;;;;2.83;2.77;;;20.20;74.50;;;;;;5016764;28;43379;-72
2022/10/20 12:17:26;;;;;;;2.50;2.40;;;20.30;74.00;;;;;;5006266;28;43921;-71
2022/10/20 12:20:09;;;;;;;2.30;2.30;;;20.40;73.80;;;;;;5022834;28;43530;-71
2022/10/20 12:22:41;;;;;;;2.43;2.33;;;20.40;73.70;;;;;;5011279;28;43429;-71
2022/10/20 12:25:19;;;;;;;2.43;2.23;;;20.30;73.90;;;;;;5012409;28;43426;-71
2022/10/20 12:27:50;;;;;;;2.70;2.57;;;20.40;74.00;;;;;;5007758;28;44038;-71
2022/10/20 12:30:43;;;;;;;2.50;2.40;;;20.30;73.80;;;;;;5015031;28;43389;-72
2022/10/20 12:33:16;;;;;;;2.33;2.23;;;20.30;74.00;;;;;;5010720;28;43419;-72
2022/10/20 12:35:59;;;;;;;3.00;2.80;;;20.20;74.10;;;;;;5010688;28;43407;-71
2022/10/20 12:38:28;;;;;;;2.93;2.73;;;20.10;74.40;;;;;;5018140;28;43881;-71
2022/10/20 12:41:00;;;;;;;2.70;2.60;;;20.20;74.50;;;;;;5021808;28;43337;-72
2022/10/20 12:43:31;;;;;;;2.70;2.60;;;20.10;74.40;;;;;;5012316;28;43508;-71
2022/10/20 12:46:03;;;;;;;2.63;2.53;;;20.10;74.40;;;;;;5010967;28;43736;-71
2022/10/20 12:48:32;;;;;;;3.10;2.90;;;20.10;74.50;;;;;;5019677;28;43790;-71
2022/10/20 12:51:03;;;;;;;3.13;2.93;;;20.00;74.90;;;;;;5009502;28;43533;-71
2022/10/20 12:53:31;;;;;;;4.43;3.10;;;20.10;74.90;;;;;;5018635;28;43452;-71
2022/10/20 12:56:00;;;;;;;2.93;2.73;;;20.20;74.50;;;;;;5019598;28;43980;-71
2022/10/20 12:58:30;;;;;;;3.53;2.70;;;20.30;74.00;;;;;;5007703;28;43611;-71
2022/10/20 13:01:04;;;;;;;2.97;2.87;;;20.40;73.80;;;;;;5016583;28;43939;-72
2022/10/20 13:03:45;;;;;;;5.23;3.03;;;20.40;73.70;;;;;;5007168;28;43330;-71
2022/10/20 13:06:43;;;;;;;3.90;3.03;;;20.30;74.00;;;;;;5009663;28;43377;-72